sensor_id;sensor_type;location;lat;lon;timestamp;P1;durP1;ratioP1;P2;durP2;ratioP2
60032;SDS011;45905;50.570;10.428;2023-07-09T00:02:18;5.73;;;3.77;;
60032;SDS011;45905;50.570;10.428;2023-07-09T00:04:45;10.40;;;4.77;;
60032;SDS011;45905;50.570;10.428;2023-07-09T00:07:31;7.53;;;4.43;;
60032;SDS011;45905;50.570;10.428;2023-07-09T00:10:00;5.50;;;3.30;;
60032;SDS011;45905;50.570;10.428;2023-07-09T00:12:27;6.90;;;3.77;;
60032;SDS011;45905;50.570;10.428;2023-07-09T00:14:54;4.97;;;3.53;;
60032;SDS011;45905;50.570;10.428;2023-07-09T00:17:31;6.47;;;3.97;;
60032;SDS011;45905;50.570;10.428;2023-07-09T00:20:02;7.77;;;3.77;;
60032;SDS011;45905;50.570;10.428;2023-07-09T00:22:37;7.97;;;4.17;;
60032;SDS011;45905;50.570;10.428;2023-07-09T00:25:05;5.13;;;3.40;;
60032;SDS011;45905;50.570;10.428;2023-07-09T00:27:40;5.10;;;3.00;;
60032;SDS011;45905;50.570;10.428;2023-07-09T00:30:14;7.10;;;4.17;;
60032;SDS011;45905;50.570;10.428;2023-07-09T00:32:45;11.23;;;4.03;;
60032;SDS011;45905;50.570;10.428;2023-07-09T00:35:13;5.30;;;3.93;;
60032;SDS011;45905;50.570;10.428;2023-07-09T00:37:43;5.10;;;3.30;;
60032;SDS011;45905;50.570;10.428;2023-07-09T00:40:16;6.73;;;3.50;;
60032;SDS011;45905;50.570;10.428;2023-07-09T00:42:48;7.53;;;2.90;;
60032;SDS011;45905;50.570;10.428;2023-07-09T00:45:22;10.30;;;3.50;;
60032;SDS011;45905;50.570;10.428;2023-07-09T00:47:59;4.83;;;3.27;;
60032;SDS011;45905;50.570;10.428;2023-07-09T00:50:35;5.17;;;3.30;;
60032;SDS011;45905;50.570;10.428;2023-07-09T00:53:25;7.90;;;3.80;;
60032;SDS011;45905;50.570;10.428;2023-07-09T00:55:59;4.93;;;2.97;;
60032;SDS011;45905;50.570;10.428;2023-07-09T00:58:36;9.43;;;3.97;;
60032;SDS011;45905;50.570;10.428;2023-07-09T01:01:05;7.13;;;3.40;;
60032;SDS011;45905;50.570;10.428;2023-07-09T01:03:44;9.40;;;3.77;;
60032;SDS011;45905;50.570;10.428;2023-07-09T01:06:20;3.80;;;3.40;;
60032;SDS011;45905;50.570;10.428;2023-07-09T01:08:56;6.40;;;3.63;;
60032;SDS011;45905;50.570;10.428;2023-07-09T01:11:27;5.57;;;3.33;;
60032;SDS011;45905;50.570;10.428;2023-07-09T01:14:00;6.50;;;3.57;;
60032;SDS011;45905;50.570;10.428;2023-07-09T01:16:31;6.73;;;3.23;;
60032;SDS011;45905;50.570;10.428;2023-07-09T01:19:04;7.53;;;3.90;;
60032;SDS011;45905;50.570;10.428;2023-07-09T01:21:32;12.97;;;3.27;;
60032;SDS011;45905;50.570;10.428;2023-07-09T01:24:11;4.30;;;3.20;;
60032;SDS011;45905;50.570;10.428;2023-07-09T01:27:02;6.20;;;3.23;;
60032;SDS011;45905;50.570;10.428;2023-07-09T01:29:31;4.73;;;2.97;;
60032;SDS011;45905;50.570;10.428;2023-07-09T01:32:02;8.77;;;3.53;;
60032;SDS011;45905;50.570;10.428;2023-07-09T01:34:33;7.27;;;3.63;;
60032;SDS011;45905;50.570;10.428;2023-07-09T01:37:00;6.87;;;3.30;;
60032;SDS011;45905;50.570;10.428;2023-07-09T01:39:28;6.97;;;3.77;;
60032;SDS011;45905;50.570;10.428;2023-07-09T01:41:55;6.60;;;3.40;;
60032;SDS011;45905;50.570;10.428;2023-07-09T01:44:23;6.30;;;3.20;;
60032;SDS011;45905;50.570;10.428;2023-07-09T01:46:50;5.93;;;3.57;;
60032;SDS011;45905;50.570;10.428;2023-07-09T01:49:19;4.47;;;3.43;;
60032;SDS011;45905;50.570;10.428;2023-07-09T01:51:47;4.50;;;3.33;;
60032;SDS011;45905;50.570;10.428;2023-07-09T01:54:15;4.33;;;3.20;;
60032;SDS011;45905;50.570;10.428;2023-07-09T01:56:43;5.73;;;4.37;;
60032;SDS011;45905;50.570;10.428;2023-07-09T01:59:10;9.33;;;3.40;;
60032;SDS011;45905;50.570;10.428;2023-07-09T02:01:37;12.63;;;3.93;;
60032;SDS011;45905;50.570;10.428;2023-07-09T02:04:05;6.07;;;4.33;;
60032;SDS011;45905;50.570;10.428;2023-07-09T02:06:32;7.30;;;3.77;;
60032;SDS011;45905;50.570;10.428;2023-07-09T02:08:59;9.20;;;4.40;;
60032;SDS011;45905;50.570;10.428;2023-07-09T02:11:27;3.80;;;3.20;;
60032;SDS011;45905;50.570;10.428;2023-07-09T02:13:54;4.20;;;3.00;;
60032;SDS011;45905;50.570;10.428;2023-07-09T02:16:21;3.43;;;2.67;;
60032;SDS011;45905;50.570;10.428;2023-07-09T02:18:49;10.10;;;4.17;;
60032;SDS011;45905;50.570;10.428;2023-07-09T02:21:16;4.80;;;3.20;;
60032;SDS011;45905;50.570;10.428;2023-07-09T02:23:43;7.27;;;3.73;;
60032;SDS011;45905;50.570;10.428;2023-07-09T02:26:11;4.27;;;3.07;;
60032;SDS011;45905;50.570;10.428;2023-07-09T02:28:38;7.00;;;3.70;;
60032;SDS011;45905;50.570;10.428;2023-07-09T02:31:05;8.20;;;4.63;;
60032;SDS011;45905;50.570;10.428;2023-07-09T02:33:34;5.77;;;3.80;;
60032;SDS011;45905;50.570;10.428;2023-07-09T02:36:02;5.20;;;4.07;;
60032;SDS011;45905;50.570;10.428;2023-07-09T02:38:30;4.17;;;3.20;;
60032;SDS011;45905;50.570;10.428;2023-07-09T02:40:57;6.67;;;4.13;;
60032;SDS011;45905;50.570;10.428;2023-07-09T02:43:25;6.77;;;3.60;;
60032;SDS011;45905;50.570;10.428;2023-07-09T02:45:52;6.17;;;3.60;;
60032;SDS011;45905;50.570;10.428;2023-07-09T02:48:19;7.93;;;4.33;;
60032;SDS011;45905;50.570;10.428;2023-07-09T02:50:47;7.47;;;3.93;;
60032;SDS011;45905;50.570;10.428;2023-07-09T02:53:14;7.13;;;4.13;;
60032;SDS011;45905;50.570;10.428;2023-07-09T02:55:42;4.90;;;3.80;;
60032;SDS011;45905;50.570;10.428;2023-07-09T02:58:09;8.13;;;4.00;;
60032;SDS011;45905;50.570;10.428;2023-07-09T03:00:36;7.07;;;3.40;;
60032;SDS011;45905;50.570;10.428;2023-07-09T03:03:03;4.60;;;2.80;;
60032;SDS011;45905;50.570;10.428;2023-07-09T03:05:30;5.90;;;3.20;;
60032;SDS011;45905;50.570;10.428;2023-07-09T03:07:59;3.93;;;3.33;;
60032;SDS011;45905;50.570;10.428;2023-07-09T03:10:27;6.37;;;3.73;;
60032;SDS011;45905;50.570;10.428;2023-07-09T03:12:55;6.40;;;3.40;;
60032;SDS011;45905;50.570;10.428;2023-07-09T03:15:22;5.97;;;3.30;;
60032;SDS011;45905;50.570;10.428;2023-07-09T03:17:49;4.50;;;3.60;;
60032;SDS011;45905;50.570;10.428;2023-07-09T03:20:17;9.17;;;3.93;;
60032;SDS011;45905;50.570;10.428;2023-07-09T03:22:44;5.50;;;3.40;;
60032;SDS011;45905;50.570;10.428;2023-07-09T03:25:11;8.70;;;3.53;;
60032;SDS011;45905;50.570;10.428;2023-07-09T03:27:38;6.40;;;3.83;;
60032;SDS011;45905;50.570;10.428;2023-07-09T03:30:06;10.07;;;4.00;;
60032;SDS011;45905;50.570;10.428;2023-07-09T03:32:34;7.27;;;4.17;;
60032;SDS011;45905;50.570;10.428;2023-07-09T03:35:01;5.77;;;3.73;;
60032;SDS011;45905;50.570;10.428;2023-07-09T03:37:28;6.27;;;3.60;;
60032;SDS011;45905;50.570;10.428;2023-07-09T03:39:56;7.63;;;3.50;;
60032;SDS011;45905;50.570;10.428;2023-07-09T03:42:23;7.27;;;4.20;;
60032;SDS011;45905;50.570;10.428;2023-07-09T03:44:50;7.47;;;4.37;;
60032;SDS011;45905;50.570;10.428;2023-07-09T03:47:17;6.03;;;4.37;;
60032;SDS011;45905;50.570;10.428;2023-07-09T03:49:44;5.53;;;3.83;;
60032;SDS011;45905;50.570;10.428;2023-07-09T03:52:12;6.77;;;4.07;;
60032;SDS011;45905;50.570;10.428;2023-07-09T03:54:39;7.13;;;3.87;;
60032;SDS011;45905;50.570;10.428;2023-07-09T03:57:06;6.40;;;4.03;;
60032;SDS011;45905;50.570;10.428;2023-07-09T03:59:34;4.70;;;3.20;;
60032;SDS011;45905;50.570;10.428;2023-07-09T04:02:01;4.20;;;3.70;;
60032;SDS011;45905;50.570;10.428;2023-07-09T04:04:29;6.43;;;3.90;;
60032;SDS011;45905;50.570;10.428;2023-07-09T04:06:56;6.53;;;3.70;;
60032;SDS011;45905;50.570;10.428;2023-07-09T04:09:23;5.40;;;3.37;;
60032;SDS011;45905;50.570;10.428;2023-07-09T04:11:51;5.40;;;3.40;;
60032;SDS011;45905;50.570;10.428;2023-07-09T04:14:18;6.10;;;3.90;;
60032;SDS011;45905;50.570;10.428;2023-07-09T04:16:45;5.77;;;4.00;;
60032;SDS011;45905;50.570;10.428;2023-07-09T04:19:12;10.43;;;4.10;;
60032;SDS011;45905;50.570;10.428;2023-07-09T04:21:39;6.70;;;4.60;;
60032;SDS011;45905;50.570;10.428;2023-07-09T04:24:07;5.97;;;3.93;;
60032;SDS011;45905;50.570;10.428;2023-07-09T04:26:34;4.87;;;3.80;;
60032;SDS011;45905;50.570;10.428;2023-07-09T04:29:01;4.70;;;3.30;;
60032;SDS011;45905;50.570;10.428;2023-07-09T04:31:29;6.17;;;3.80;;
60032;SDS011;45905;50.570;10.428;2023-07-09T04:33:57;5.00;;;3.53;;
60032;SDS011;45905;50.570;10.428;2023-07-09T04:36:24;4.67;;;3.07;;
60032;SDS011;45905;50.570;10.428;2023-07-09T04:38:52;5.37;;;3.13;;
60032;SDS011;45905;50.570;10.428;2023-07-09T04:41:19;5.17;;;4.00;;
60032;SDS011;45905;50.570;10.428;2023-07-09T04:43:47;5.70;;;3.43;;
60032;SDS011;45905;50.570;10.428;2023-07-09T04:46:14;5.97;;;4.37;;
60032;SDS011;45905;50.570;10.428;2023-07-09T04:48:42;6.47;;;3.40;;
60032;SDS011;45905;50.570;10.428;2023-07-09T04:51:09;7.50;;;4.10;;
60032;SDS011;45905;50.570;10.428;2023-07-09T04:53:36;5.87;;;4.20;;
60032;SDS011;45905;50.570;10.428;2023-07-09T04:56:03;6.63;;;3.87;;
60032;SDS011;45905;50.570;10.428;2023-07-09T04:58:31;5.03;;;3.93;;
60032;SDS011;45905;50.570;10.428;2023-07-09T05:00:58;7.03;;;4.27;;
60032;SDS011;45905;50.570;10.428;2023-07-09T05:03:26;8.27;;;4.40;;
60032;SDS011;45905;50.570;10.428;2023-07-09T05:05:53;5.40;;;4.30;;
60032;SDS011;45905;50.570;10.428;2023-07-09T05:08:21;5.00;;;4.20;;
60032;SDS011;45905;50.570;10.428;2023-07-09T05:10:49;6.40;;;4.37;;
60032;SDS011;45905;50.570;10.428;2023-07-09T05:13:19;6.27;;;4.10;;
60032;SDS011;45905;50.570;10.428;2023-07-09T05:15:46;9.47;;;4.97;;
60032;SDS011;45905;50.570;10.428;2023-07-09T05:18:14;7.23;;;4.30;;
60032;SDS011;45905;50.570;10.428;2023-07-09T05:20:42;11.27;;;4.97;;
60032;SDS011;45905;50.570;10.428;2023-07-09T05:23:10;8.00;;;4.37;;
60032;SDS011;45905;50.570;10.428;2023-07-09T05:25:38;7.30;;;5.00;;
60032;SDS011;45905;50.570;10.428;2023-07-09T05:28:05;9.23;;;5.27;;
60032;SDS011;45905;50.570;10.428;2023-07-09T05:30:32;6.93;;;4.47;;
60032;SDS011;45905;50.570;10.428;2023-07-09T05:33:00;6.27;;;4.30;;
60032;SDS011;45905;50.570;10.428;2023-07-09T05:35:27;10.03;;;4.33;;
60032;SDS011;45905;50.570;10.428;2023-07-09T05:37:54;6.10;;;4.20;;
60032;SDS011;45905;50.570;10.428;2023-07-09T05:40:22;6.60;;;4.63;;
60032;SDS011;45905;50.570;10.428;2023-07-09T05:42:49;6.30;;;5.00;;
60032;SDS011;45905;50.570;10.428;2023-07-09T05:45:17;6.53;;;4.20;;
60032;SDS011;45905;50.570;10.428;2023-07-09T05:47:44;6.17;;;4.83;;
60032;SDS011;45905;50.570;10.428;2023-07-09T05:50:11;7.90;;;4.83;;
60032;SDS011;45905;50.570;10.428;2023-07-09T05:52:38;7.07;;;5.30;;
60032;SDS011;45905;50.570;10.428;2023-07-09T05:55:05;7.07;;;5.43;;
60032;SDS011;45905;50.570;10.428;2023-07-09T05:57:33;9.40;;;4.77;;
60032;SDS011;45905;50.570;10.428;2023-07-09T06:00:00;13.13;;;4.90;;
60032;SDS011;45905;50.570;10.428;2023-07-09T06:02:38;8.90;;;4.27;;
60032;SDS011;45905;50.570;10.428;2023-07-09T06:05:06;5.40;;;4.90;;
60032;SDS011;45905;50.570;10.428;2023-07-09T06:07:37;6.93;;;4.97;;
60032;SDS011;45905;50.570;10.428;2023-07-09T06:10:05;7.17;;;5.27;;
60032;SDS011;45905;50.570;10.428;2023-07-09T06:12:34;10.67;;;4.87;;
60032;SDS011;45905;50.570;10.428;2023-07-09T06:15:02;39.57;;;6.10;;
60032;SDS011;45905;50.570;10.428;2023-07-09T06:17:30;9.93;;;5.17;;
60032;SDS011;45905;50.570;10.428;2023-07-09T06:19:57;10.03;;;4.37;;
60032;SDS011;45905;50.570;10.428;2023-07-09T06:22:25;8.87;;;5.33;;
60032;SDS011;45905;50.570;10.428;2023-07-09T06:24:53;8.90;;;5.27;;
60032;SDS011;45905;50.570;10.428;2023-07-09T06:27:21;10.07;;;5.10;;
60032;SDS011;45905;50.570;10.428;2023-07-09T06:29:48;9.17;;;4.60;;
60032;SDS011;45905;50.570;10.428;2023-07-09T06:32:15;9.23;;;5.73;;
60032;SDS011;45905;50.570;10.428;2023-07-09T06:34:42;7.00;;;5.07;;
60032;SDS011;45905;50.570;10.428;2023-07-09T06:37:10;8.97;;;5.47;;
60032;SDS011;45905;50.570;10.428;2023-07-09T06:39:37;5.63;;;4.33;;
60032;SDS011;45905;50.570;10.428;2023-07-09T06:42:04;14.30;;;6.07;;
60032;SDS011;45905;50.570;10.428;2023-07-09T06:44:58;7.37;;;4.60;;
60032;SDS011;45905;50.570;10.428;2023-07-09T06:47:26;8.40;;;5.13;;
60032;SDS011;45905;50.570;10.428;2023-07-09T06:49:53;9.00;;;4.80;;
60032;SDS011;45905;50.570;10.428;2023-07-09T06:52:20;10.97;;;5.43;;
60032;SDS011;45905;50.570;10.428;2023-07-09T06:54:47;5.63;;;4.83;;
60032;SDS011;45905;50.570;10.428;2023-07-09T06:57:15;9.50;;;5.03;;
60032;SDS011;45905;50.570;10.428;2023-07-09T06:59:42;16.03;;;6.17;;
60032;SDS011;45905;50.570;10.428;2023-07-09T07:02:10;7.70;;;5.00;;
60032;SDS011;45905;50.570;10.428;2023-07-09T07:04:37;11.93;;;5.90;;
60032;SDS011;45905;50.570;10.428;2023-07-09T07:07:05;9.13;;;5.70;;
60032;SDS011;45905;50.570;10.428;2023-07-09T07:09:32;7.60;;;4.40;;
60032;SDS011;45905;50.570;10.428;2023-07-09T07:11:59;8.60;;;5.17;;
60032;SDS011;45905;50.570;10.428;2023-07-09T07:14:26;8.10;;;4.73;;
60032;SDS011;45905;50.570;10.428;2023-07-09T07:16:55;8.43;;;5.27;;
60032;SDS011;45905;50.570;10.428;2023-07-09T07:19:24;5.53;;;4.57;;
60032;SDS011;45905;50.570;10.428;2023-07-09T07:21:52;7.70;;;4.87;;
60032;SDS011;45905;50.570;10.428;2023-07-09T07:24:19;7.07;;;4.23;;
60032;SDS011;45905;50.570;10.428;2023-07-09T07:26:46;6.87;;;5.03;;
60032;SDS011;45905;50.570;10.428;2023-07-09T07:29:14;7.07;;;4.70;;
60032;SDS011;45905;50.570;10.428;2023-07-09T07:31:41;9.03;;;5.23;;
60032;SDS011;45905;50.570;10.428;2023-07-09T07:34:08;9.27;;;5.37;;
60032;SDS011;45905;50.570;10.428;2023-07-09T07:36:36;7.57;;;5.53;;
60032;SDS011;45905;50.570;10.428;2023-07-09T07:39:08;8.47;;;5.87;;
60032;SDS011;45905;50.570;10.428;2023-07-09T07:41:36;13.50;;;5.90;;
60032;SDS011;45905;50.570;10.428;2023-07-09T07:44:04;8.47;;;4.70;;
60032;SDS011;45905;50.570;10.428;2023-07-09T07:46:32;11.37;;;5.23;;
60032;SDS011;45905;50.570;10.428;2023-07-09T07:49:01;11.70;;;5.40;;
60032;SDS011;45905;50.570;10.428;2023-07-09T07:51:28;8.27;;;5.10;;
60032;SDS011;45905;50.570;10.428;2023-07-09T07:53:55;9.20;;;6.00;;
60032;SDS011;45905;50.570;10.428;2023-07-09T07:56:23;4.83;;;4.30;;
60032;SDS011;45905;50.570;10.428;2023-07-09T07:58:50;11.33;;;6.03;;
60032;SDS011;45905;50.570;10.428;2023-07-09T08:01:17;6.70;;;4.27;;
60032;SDS011;45905;50.570;10.428;2023-07-09T08:03:44;9.87;;;5.67;;
60032;SDS011;45905;50.570;10.428;2023-07-09T08:06:11;7.37;;;4.57;;
60032;SDS011;45905;50.570;10.428;2023-07-09T08:08:39;11.73;;;5.73;;
60032;SDS011;45905;50.570;10.428;2023-07-09T08:11:06;7.27;;;4.83;;
60032;SDS011;45905;50.570;10.428;2023-07-09T08:13:34;7.37;;;5.50;;
60032;SDS011;45905;50.570;10.428;2023-07-09T08:16:03;12.93;;;5.20;;
60032;SDS011;45905;50.570;10.428;2023-07-09T08:18:32;6.90;;;4.80;;
60032;SDS011;45905;50.570;10.428;2023-07-09T08:21:00;9.20;;;4.83;;
60032;SDS011;45905;50.570;10.428;2023-07-09T08:23:27;11.53;;;5.30;;
60032;SDS011;45905;50.570;10.428;2023-07-09T08:25:55;9.17;;;4.90;;
60032;SDS011;45905;50.570;10.428;2023-07-09T08:28:24;10.33;;;5.53;;
60032;SDS011;45905;50.570;10.428;2023-07-09T08:30:52;8.97;;;5.70;;
60032;SDS011;45905;50.570;10.428;2023-07-09T08:33:21;7.83;;;4.67;;
60032;SDS011;45905;50.570;10.428;2023-07-09T08:35:50;9.20;;;5.13;;
60032;SDS011;45905;50.570;10.428;2023-07-09T08:38:19;8.07;;;4.33;;
60032;SDS011;45905;50.570;10.428;2023-07-09T08:41:01;7.80;;;5.27;;
60032;SDS011;45905;50.570;10.428;2023-07-09T08:49:21;7.20;;;4.20;;
60032;SDS011;45905;50.570;10.428;2023-07-09T08:52:09;5.30;;;4.20;;
60032;SDS011;45905;50.570;10.428;2023-07-09T08:54:44;8.30;;;4.07;;
60032;SDS011;45905;50.570;10.428;2023-07-09T08:57:33;7.57;;;3.97;;
60032;SDS011;45905;50.570;10.428;2023-07-09T09:00:16;5.50;;;3.47;;
60032;SDS011;45905;50.570;10.428;2023-07-09T09:03:16;10.83;;;3.50;;
60032;SDS011;45905;50.570;10.428;2023-07-09T09:06:15;8.10;;;4.50;;
60032;SDS011;45905;50.570;10.428;2023-07-09T09:11:51;9.07;;;4.27;;
60032;SDS011;45905;50.570;10.428;2023-07-09T09:14:42;4.40;;;3.70;;
60032;SDS011;45905;50.570;10.428;2023-07-09T09:17:16;7.07;;;3.10;;
60032;SDS011;45905;50.570;10.428;2023-07-09T09:19:56;7.60;;;3.87;;
60032;SDS011;45905;50.570;10.428;2023-07-09T09:22:42;8.40;;;2.70;;
60032;SDS011;45905;50.570;10.428;2023-07-09T09:25:21;9.07;;;2.77;;
60032;SDS011;45905;50.570;10.428;2023-07-09T09:28:00;5.00;;;3.47;;
60032;SDS011;45905;50.570;10.428;2023-07-09T09:30:29;4.60;;;3.17;;
60032;SDS011;45905;50.570;10.428;2023-07-09T09:32:58;5.70;;;3.50;;
60032;SDS011;45905;50.570;10.428;2023-07-09T09:35:33;9.60;;;3.67;;
60032;SDS011;45905;50.570;10.428;2023-07-09T09:38:10;5.73;;;3.80;;
60032;SDS011;45905;50.570;10.428;2023-07-09T09:40:40;4.87;;;3.27;;
60032;SDS011;45905;50.570;10.428;2023-07-09T09:43:12;3.93;;;3.27;;
60032;SDS011;45905;50.570;10.428;2023-07-09T09:45:47;6.00;;;3.07;;
60032;SDS011;45905;50.570;10.428;2023-07-09T09:48:27;7.33;;;3.47;;
60032;SDS011;45905;50.570;10.428;2023-07-09T09:50:58;5.13;;;3.50;;
60032;SDS011;45905;50.570;10.428;2023-07-09T09:53:39;9.73;;;4.00;;
60032;SDS011;45905;50.570;10.428;2023-07-09T09:56:14;5.60;;;3.20;;
60032;SDS011;45905;50.570;10.428;2023-07-09T09:59:03;6.80;;;3.57;;
60032;SDS011;45905;50.570;10.428;2023-07-09T10:01:33;5.07;;;2.97;;
60032;SDS011;45905;50.570;10.428;2023-07-09T10:04:04;4.50;;;2.93;;
60032;SDS011;45905;50.570;10.428;2023-07-09T10:06:34;4.67;;;2.47;;
60032;SDS011;45905;50.570;10.428;2023-07-09T10:12:08;4.30;;;2.60;;
60032;SDS011;45905;50.570;10.428;2023-07-09T10:18:24;8.80;;;2.40;;
60032;SDS011;45905;50.570;10.428;2023-07-09T10:21:37;5.37;;;3.03;;
60032;SDS011;45905;50.570;10.428;2023-07-09T10:24:06;4.63;;;2.60;;
60032;SDS011;45905;50.570;10.428;2023-07-09T10:27:03;5.40;;;2.27;;
60032;SDS011;45905;50.570;10.428;2023-07-09T10:33:16;7.10;;;2.80;;
60032;SDS011;45905;50.570;10.428;2023-07-09T10:39:56;4.40;;;2.90;;
60032;SDS011;45905;50.570;10.428;2023-07-09T10:42:32;9.17;;;2.63;;
60032;SDS011;45905;50.570;10.428;2023-07-09T10:45:23;7.00;;;1.90;;
60032;SDS011;45905;50.570;10.428;2023-07-09T10:48:02;3.87;;;2.40;;
60032;SDS011;45905;50.570;10.428;2023-07-09T10:50:43;6.30;;;2.47;;
60032;SDS011;45905;50.570;10.428;2023-07-09T10:56:05;4.20;;;2.50;;
60032;SDS011;45905;50.570;10.428;2023-07-09T11:01:37;4.70;;;1.87;;
60032;SDS011;45905;50.570;10.428;2023-07-09T11:04:20;5.60;;;1.83;;
60032;SDS011;45905;50.570;10.428;2023-07-09T11:06:57;4.97;;;2.57;;
60032;SDS011;45905;50.570;10.428;2023-07-09T11:12:20;2.50;;;2.10;;
60032;SDS011;45905;50.570;10.428;2023-07-09T11:15:17;4.00;;;1.80;;
60032;SDS011;45905;50.570;10.428;2023-07-09T11:17:53;4.47;;;2.83;;
60032;SDS011;45905;50.570;10.428;2023-07-09T11:20:36;4.53;;;2.83;;
60032;SDS011;45905;50.570;10.428;2023-07-09T11:23:18;4.87;;;2.20;;
60032;SDS011;45905;50.570;10.428;2023-07-09T11:26:00;2.83;;;1.93;;
60032;SDS011;45905;50.570;10.428;2023-07-09T11:28:39;3.97;;;2.13;;
60032;SDS011;45905;50.570;10.428;2023-07-09T11:31:17;5.20;;;2.50;;
60032;SDS011;45905;50.570;10.428;2023-07-09T11:33:58;6.70;;;2.40;;
60032;SDS011;45905;50.570;10.428;2023-07-09T11:36:34;5.03;;;2.13;;
60032;SDS011;45905;50.570;10.428;2023-07-09T11:42:26;6.83;;;4.23;;
60032;SDS011;45905;50.570;10.428;2023-07-09T11:45:06;6.00;;;2.63;;
60032;SDS011;45905;50.570;10.428;2023-07-09T11:47:39;7.20;;;3.40;;
60032;SDS011;45905;50.570;10.428;2023-07-09T11:50:28;3.87;;;2.40;;
60032;SDS011;45905;50.570;10.428;2023-07-09T11:53:05;3.80;;;2.50;;
60032;SDS011;45905;50.570;10.428;2023-07-09T11:56:00;5.43;;;2.17;;
60032;SDS011;45905;50.570;10.428;2023-07-09T11:58:28;5.10;;;2.27;;
60032;SDS011;45905;50.570;10.428;2023-07-09T12:00:55;6.07;;;3.03;;
60032;SDS011;45905;50.570;10.428;2023-07-09T12:03:34;8.67;;;2.60;;
60032;SDS011;45905;50.570;10.428;2023-07-09T12:08:54;3.80;;;2.23;;
60032;SDS011;45905;50.570;10.428;2023-07-09T12:11:24;8.33;;;2.87;;
60032;SDS011;45905;50.570;10.428;2023-07-09T12:14:00;5.23;;;2.90;;
60032;SDS011;45905;50.570;10.428;2023-07-09T12:16:41;14.17;;;2.80;;
60032;SDS011;45905;50.570;10.428;2023-07-09T12:19:15;5.80;;;2.40;;
60032;SDS011;45905;50.570;10.428;2023-07-09T12:21:46;6.07;;;3.30;;
60032;SDS011;45905;50.570;10.428;2023-07-09T12:24:24;5.77;;;3.60;;
60032;SDS011;45905;50.570;10.428;2023-07-09T12:26:58;5.77;;;2.80;;
60032;SDS011;45905;50.570;10.428;2023-07-09T12:29:34;6.83;;;2.30;;
60032;SDS011;45905;50.570;10.428;2023-07-09T12:32:03;3.37;;;1.93;;
60032;SDS011;45905;50.570;10.428;2023-07-09T12:34:50;8.30;;;3.17;;
60032;SDS011;45905;50.570;10.428;2023-07-09T12:37:19;3.60;;;2.43;;
60032;SDS011;45905;50.570;10.428;2023-07-09T12:39:51;13.67;;;2.73;;
60032;SDS011;45905;50.570;10.428;2023-07-09T12:42:23;3.67;;;2.80;;
60032;SDS011;45905;50.570;10.428;2023-07-09T12:44:58;3.30;;;1.97;;
60032;SDS011;45905;50.570;10.428;2023-07-09T12:47:26;4.03;;;2.90;;
60032;SDS011;45905;50.570;10.428;2023-07-09T12:50:01;3.17;;;2.13;;
60032;SDS011;45905;50.570;10.428;2023-07-09T12:52:47;5.17;;;2.47;;
60032;SDS011;45905;50.570;10.428;2023-07-09T12:55:19;4.17;;;2.20;;
60032;SDS011;45905;50.570;10.428;2023-07-09T12:57:56;3.73;;;2.50;;
60032;SDS011;45905;50.570;10.428;2023-07-09T13:00:31;3.83;;;2.87;;
60032;SDS011;45905;50.570;10.428;2023-07-09T13:02:59;5.73;;;3.60;;
60032;SDS011;45905;50.570;10.428;2023-07-09T13:05:27;4.63;;;2.70;;
60032;SDS011;45905;50.570;10.428;2023-07-09T13:07:58;3.37;;;2.50;;
60032;SDS011;45905;50.570;10.428;2023-07-09T13:10:29;3.23;;;2.60;;
60032;SDS011;45905;50.570;10.428;2023-07-09T13:13:03;4.13;;;2.43;;
60032;SDS011;45905;50.570;10.428;2023-07-09T13:18:05;2.80;;;2.33;;
60032;SDS011;45905;50.570;10.428;2023-07-09T13:20:37;8.77;;;2.63;;
60032;SDS011;45905;50.570;10.428;2023-07-09T13:23:16;6.57;;;2.33;;
60032;SDS011;45905;50.570;10.428;2023-07-09T13:25:47;3.10;;;2.23;;
60032;SDS011;45905;50.570;10.428;2023-07-09T13:28:22;4.63;;;3.23;;
60032;SDS011;45905;50.570;10.428;2023-07-09T13:31:13;11.43;;;3.70;;
60032;SDS011;45905;50.570;10.428;2023-07-09T13:33:43;7.50;;;3.13;;
60032;SDS011;45905;50.570;10.428;2023-07-09T13:36:18;6.50;;;3.17;;
60032;SDS011;45905;50.570;10.428;2023-07-09T13:38:46;9.60;;;3.43;;
60032;SDS011;45905;50.570;10.428;2023-07-09T13:41:14;4.07;;;2.50;;
60032;SDS011;45905;50.570;10.428;2023-07-09T13:43:45;4.90;;;2.50;;
60032;SDS011;45905;50.570;10.428;2023-07-09T13:46:14;6.10;;;3.30;;
60032;SDS011;45905;50.570;10.428;2023-07-09T13:48:42;6.60;;;3.27;;
60032;SDS011;45905;50.570;10.428;2023-07-09T13:51:16;6.57;;;3.27;;
60032;SDS011;45905;50.570;10.428;2023-07-09T13:53:51;3.37;;;2.20;;
60032;SDS011;45905;50.570;10.428;2023-07-09T13:56:21;5.17;;;2.60;;
60032;SDS011;45905;50.570;10.428;2023-07-09T13:58:50;3.97;;;2.63;;
60032;SDS011;45905;50.570;10.428;2023-07-09T14:01:18;12.00;;;3.30;;
60032;SDS011;45905;50.570;10.428;2023-07-09T14:03:49;4.83;;;2.70;;
60032;SDS011;45905;50.570;10.428;2023-07-09T14:06:20;5.20;;;2.40;;
60032;SDS011;45905;50.570;10.428;2023-07-09T14:08:48;4.87;;;2.97;;
60032;SDS011;45905;50.570;10.428;2023-07-09T14:11:15;4.60;;;2.80;;
60032;SDS011;45905;50.570;10.428;2023-07-09T14:13:44;7.40;;;2.93;;
60032;SDS011;45905;50.570;10.428;2023-07-09T14:16:12;3.83;;;2.60;;
60032;SDS011;45905;50.570;10.428;2023-07-09T14:18:41;8.50;;;3.10;;
60032;SDS011;45905;50.570;10.428;2023-07-09T14:21:13;2.30;;;2.03;;
60032;SDS011;45905;50.570;10.428;2023-07-09T14:23:45;6.20;;;3.30;;
60032;SDS011;45905;50.570;10.428;2023-07-09T14:26:12;4.97;;;2.77;;
60032;SDS011;45905;50.570;10.428;2023-07-09T14:28:39;3.83;;;2.60;;
60032;SDS011;45905;50.570;10.428;2023-07-09T14:31:13;4.47;;;2.63;;
60032;SDS011;45905;50.570;10.428;2023-07-09T14:33:54;5.23;;;3.23;;
60032;SDS011;45905;50.570;10.428;2023-07-09T14:36:42;4.33;;;2.80;;
60032;SDS011;45905;50.570;10.428;2023-07-09T14:39:10;4.90;;;2.70;;
60032;SDS011;45905;50.570;10.428;2023-07-09T14:41:38;3.40;;;2.30;;
60032;SDS011;45905;50.570;10.428;2023-07-09T14:44:26;3.30;;;2.70;;
60032;SDS011;45905;50.570;10.428;2023-07-09T14:46:56;2.70;;;1.90;;
60032;SDS011;45905;50.570;10.428;2023-07-09T14:49:27;5.47;;;2.70;;
60032;SDS011;45905;50.570;10.428;2023-07-09T14:51:55;3.30;;;2.10;;
60032;SDS011;45905;50.570;10.428;2023-07-09T14:54:23;4.17;;;2.70;;
60032;SDS011;45905;50.570;10.428;2023-07-09T14:56:54;5.03;;;2.60;;
60032;SDS011;45905;50.570;10.428;2023-07-09T14:59:23;4.20;;;2.30;;
60032;SDS011;45905;50.570;10.428;2023-07-09T15:01:52;4.60;;;2.67;;
60032;SDS011;45905;50.570;10.428;2023-07-09T15:06:49;4.47;;;2.60;;
60032;SDS011;45905;50.570;10.428;2023-07-09T15:09:21;6.20;;;2.40;;
60032;SDS011;45905;50.570;10.428;2023-07-09T15:11:51;5.90;;;2.93;;
60032;SDS011;45905;50.570;10.428;2023-07-09T15:14:23;5.70;;;3.23;;
60032;SDS011;45905;50.570;10.428;2023-07-09T15:16:53;2.33;;;2.13;;
60032;SDS011;45905;50.570;10.428;2023-07-09T15:19:25;2.90;;;2.57;;
60032;SDS011;45905;50.570;10.428;2023-07-09T15:21:52;4.00;;;2.33;;
60032;SDS011;45905;50.570;10.428;2023-07-09T15:24:30;9.50;;;3.33;;
60032;SDS011;45905;50.570;10.428;2023-07-09T15:27:01;4.13;;;2.63;;
60032;SDS011;45905;50.570;10.428;2023-07-09T15:29:31;3.00;;;2.40;;
60032;SDS011;45905;50.570;10.428;2023-07-09T15:31:59;4.90;;;2.67;;
60032;SDS011;45905;50.570;10.428;2023-07-09T15:34:27;6.27;;;2.87;;
60032;SDS011;45905;50.570;10.428;2023-07-09T15:36:54;3.77;;;2.07;;
60032;SDS011;45905;50.570;10.428;2023-07-09T15:39:22;3.37;;;2.10;;
60032;SDS011;45905;50.570;10.428;2023-07-09T15:41:49;5.03;;;2.60;;